createdAt,value
2019-03-26T00:02:27.218Z,97526.16
2019-03-26T00:04:58.010Z,97520.31
2019-03-26T00:07:28.931Z,97518.97
2019-03-26T00:09:59.699Z,97523.37
2019-03-26T00:12:30.500Z,97531.93
2019-03-26T00:15:02.060Z,97536.91
2019-03-26T00:17:32.894Z,97536.03
2019-03-26T00:20:03.711Z,97536.14
2019-03-26T00:22:34.509Z,97535.66
2019-03-26T00:25:05.560Z,97542.48
2019-03-26T00:27:36.503Z,97540.27
2019-03-26T00:30:07.508Z,97547.09
2019-03-26T00:32:38.261Z,97549.27
2019-03-26T00:35:09.098Z,97542.76
2019-03-26T00:37:42.956Z,97548.43
2019-03-26T00:40:13.793Z,97551.11
2019-03-26T00:42:44.615Z,97549.27
2019-03-26T00:45:16.411Z,97558.30
2019-03-26T00:47:47.173Z,97562.91
2019-03-26T00:50:18.032Z,97560.69
2019-03-26T00:52:48.810Z,97564.72
2019-03-26T00:55:22.905Z,97557.80
2019-03-26T00:57:52.259Z,97565.39
2019-03-26T01:00:37.726Z,97558.67
2019-03-26T01:03:08.539Z,97560.89
2019-03-26T01:05:39.372Z,97562.80
2019-03-26T01:08:10.313Z,97547.27
2019-03-26T01:10:41.139Z,97545.22
2019-03-26T01:13:11.955Z,97546.97
2019-03-26T01:15:42.742Z,97543.81
2019-03-26T01:18:13.571Z,97546.97
2019-03-26T01:20:44.528Z,97541.77
2019-03-26T01:23:15.300Z,97545.22
2019-03-26T01:25:46.097Z,97551.09
2019-03-26T01:28:17.437Z,97550.59
2019-03-26T01:30:48.278Z,97545.80
2019-03-26T01:33:19.086Z,97543.52
2019-03-26T01:35:50.233Z,97551.17
2019-03-26T01:38:21.001Z,97561.64
2019-03-26T01:40:51.831Z,97554.73
2019-03-26T01:43:22.617Z,97550.23
2019-03-26T01:45:53.641Z,97552.91
2019-03-26T01:48:24.470Z,97550.80
2019-03-26T01:50:55.280Z,97552.14
2019-03-26T01:53:27.108Z,97552.14
2019-03-26T01:55:57.920Z,97551.17
2019-03-26T01:58:28.710Z,97561.64
2019-03-26T02:00:59.516Z,97558.76
2019-03-26T02:03:30.248Z,97554.53
2019-03-26T02:06:03.069Z,97547.14
2019-03-26T02:08:33.857Z,97548.77
2019-03-26T02:11:04.738Z,97548.96
2019-03-26T02:13:35.514Z,97548.96
2019-03-26T02:16:06.385Z,97550.41
2019-03-26T02:18:37.130Z,97550.20
2019-03-26T02:21:07.938Z,97555.00
2019-03-26T02:23:38.839Z,97558.76
2019-03-26T02:26:11.274Z,97561.91
2019-03-26T02:28:42.103Z,97556.55
2019-03-26T02:31:12.920Z,97553.36
2019-03-26T02:33:44.853Z,97551.14
2019-03-26T02:36:15.743Z,97551.82
2019-03-26T02:38:47.546Z,97552.28
2019-03-26T02:41:18.628Z,97557.02
2019-03-26T02:43:49.519Z,97545.68
2019-03-26T02:46:20.365Z,97550.58
2019-03-26T02:48:51.308Z,97556.14
2019-03-26T02:51:22.166Z,97566.11
2019-03-26T02:53:52.930Z,97575.41
2019-03-26T02:56:26.468Z,97576.95
2019-03-26T02:58:57.275Z,97579.33
2019-03-26T03:01:28.041Z,97589.50
2019-03-26T03:03:58.866Z,97594.77
2019-03-26T03:06:29.610Z,97601.11
2019-03-26T03:09:00.469Z,97600.23
2019-03-26T03:11:31.785Z,97601.95
2019-03-26T03:14:02.611Z,97600.23
2019-03-26T03:16:34.842Z,97602.31
2019-03-26T03:19:05.757Z,97598.69
2019-03-26T03:21:36.584Z,97604.06
2019-03-26T03:24:07.485Z,97610.47
2019-03-26T03:26:38.334Z,97616.70
2019-03-26T03:29:09.296Z,97615.87
2019-03-26T03:31:40.189Z,97613.86
2019-03-26T03:34:14.133Z,97624.97
2019-03-26T03:36:44.866Z,97637.20
2019-03-26T03:39:15.747Z,97641.23
2019-03-26T03:41:46.489Z,97630.70
2019-03-26T03:44:17.308Z,97634.25
2019-03-26T03:46:48.117Z,97651.30
2019-03-26T03:49:20.483Z,97644.02
2019-03-26T03:51:51.452Z,97647.57
2019-03-26T03:54:22.430Z,97648.70
2019-03-26T03:56:54.236Z,97649.08
2019-03-26T03:59:25.095Z,97653.98
2019-03-26T04:01:56.031Z,97652.27
2019-03-26T04:04:26.833Z,97655.02
2019-03-26T04:06:57.588Z,97656.76
2019-03-26T04:09:28.347Z,97667.96
2019-03-26T04:11:59.152Z,97666.88
2019-03-26T04:14:29.957Z,97663.56
2019-03-26T04:17:00.717Z,97664.60
2019-03-26T04:19:31.561Z,97668.16
2019-03-26T04:22:02.299Z,97678.18
2019-03-26T04:24:33.583Z,97679.92
2019-03-26T04:27:04.383Z,97682.41
2019-03-26T04:29:35.169Z,97690.09
2019-03-26T04:32:05.944Z,97695.37
2019-03-26T04:34:36.787Z,97693.55
2019-03-26T04:37:09.189Z,97702.73
2019-03-26T04:39:40.038Z,97705.80
2019-03-26T04:42:10.839Z,97705.89
2019-03-26T04:44:41.709Z,97709.82
2019-03-26T04:47:12.552Z,97706.51
2019-03-26T04:49:43.343Z,97712.50
2019-03-26T04:52:14.099Z,97727.77
2019-03-26T04:54:45.018Z,97724.20
2019-03-26T04:57:15.849Z,97710.79
2019-03-26T04:59:46.717Z,97704.95
2019-03-26T05:02:17.557Z,97703.30
2019-03-26T05:04:48.420Z,97704.08
2019-03-26T05:07:19.226Z,97699.65
2019-03-26T05:09:50.088Z,97699.95
2019-03-26T05:12:20.903Z,97715.28
2019-03-26T05:14:51.656Z,97722.40
2019-03-26T05:17:22.439Z,97723.33
2019-03-26T05:19:55.523Z,97733.50
2019-03-26T05:22:26.351Z,97725.70
2019-03-26T05:24:57.215Z,97739.44
2019-03-26T05:27:28.536Z,97735.88
2019-03-26T05:29:59.312Z,97738.00
2019-03-26T05:32:30.309Z,97736.38
2019-03-26T05:35:01.407Z,97739.34
2019-03-26T05:37:37.456Z,97750.02
2019-03-26T05:40:09.256Z,97747.39
2019-03-26T05:42:40.398Z,97745.58
2019-03-26T05:45:14.245Z,97745.20
2019-03-26T05:47:45.090Z,97746.36
2019-03-26T05:50:15.829Z,97756.19
2019-03-26T05:52:48.819Z,97750.34
2019-03-26T05:55:20.651Z,97750.34
2019-03-26T05:57:51.510Z,97755.03
2019-03-26T06:00:24.344Z,97760.11
2019-03-26T06:02:55.144Z,97755.62
2019-03-26T06:05:26.234Z,97756.96
2019-03-26T06:07:57.033Z,97755.03
2019-03-26T06:10:27.844Z,97762.80
2019-03-26T06:12:59.022Z,97769.72
2019-03-26T06:15:29.826Z,97769.91
2019-03-26T06:18:00.555Z,97770.69
2019-03-26T06:20:31.328Z,97770.48
2019-03-26T06:23:02.224Z,97767.70
2019-03-26T06:25:34.065Z,97770.69
2019-03-26T06:28:06.924Z,97766.98
2019-03-26T06:30:38.118Z,97772.62
2019-03-26T06:33:08.871Z,97779.08
2019-03-26T06:35:42.519Z,97771.28
2019-03-26T06:38:13.636Z,97779.52
2019-03-26T06:40:46.816Z,97764.55
2019-03-26T06:43:17.665Z,97764.14
2019-03-26T06:45:48.473Z,97771.56
2019-03-26T06:48:19.902Z,97767.80
2019-03-26T06:50:50.798Z,97775.94
2019-03-26T06:53:21.536Z,97781.56
2019-03-26T06:55:52.313Z,97780.34
2019-03-26T06:58:23.465Z,97775.37
2019-03-26T07:00:55.788Z,97784.12
2019-03-26T07:03:27.256Z,97782.42
2019-03-26T07:05:57.960Z,97784.55
2019-03-26T07:08:29.013Z,97790.38
2019-03-26T07:10:59.825Z,97789.61
2019-03-26T07:13:32.264Z,97796.44
2019-03-26T07:16:03.013Z,97794.62
2019-03-26T07:18:33.784Z,97796.38
2019-03-26T07:21:04.554Z,97794.16
2019-03-26T07:23:35.384Z,97786.66
2019-03-26T07:26:06.221Z,97791.41
2019-03-26T07:28:37.033Z,97788.11
2019-03-26T07:31:07.955Z,97792.34
2019-03-26T07:33:38.866Z,97798.56
2019-03-26T07:36:09.936Z,97797.16
2019-03-26T07:38:40.976Z,97788.03
2019-03-26T07:41:11.688Z,97793.41
2019-03-26T07:43:42.597Z,97791.84
2019-03-26T07:46:13.480Z,97792.06
2019-03-26T07:48:44.322Z,97794.38
2019-03-26T07:51:19.204Z,97795.31
2019-03-26T07:53:50.057Z,97793.91
2019-03-26T07:56:20.916Z,97789.00
2019-03-26T07:58:51.696Z,97794.18
2019-03-26T08:01:22.549Z,97798.20
2019-03-26T08:03:53.411Z,97801.67
2019-03-26T08:06:25.805Z,97806.10
2019-03-26T08:08:56.677Z,97805.63
2019-03-26T08:11:27.492Z,97801.05
2019-03-26T08:13:58.861Z,97798.42
2019-03-26T08:16:29.775Z,97810.44
2019-03-26T08:19:00.682Z,97795.73
2019-03-26T08:21:31.535Z,97809.38
2019-03-26T08:24:02.310Z,97812.04
2019-03-26T08:26:33.134Z,97812.04
2019-03-26T08:29:07.210Z,97807.95
2019-03-26T08:31:38.045Z,97801.65
2019-03-26T08:34:09.874Z,97796.09
2019-03-26T08:36:40.763Z,97802.23
2019-03-26T08:39:11.503Z,97800.89
2019-03-26T08:41:42.229Z,97801.30
2019-03-26T08:44:12.980Z,97802.64
2019-03-26T08:46:46.265Z,97802.23
2019-03-26T08:49:16.328Z,97801.11
2019-03-26T08:51:47.106Z,97805.02
2019-03-26T08:54:18.033Z,97806.77
2019-03-26T08:56:48.910Z,97801.18
2019-03-26T08:59:19.864Z,97794.38
2019-03-26T09:01:50.600Z,97803.20
2019-03-26T09:04:21.398Z,97798.20
2019-03-26T09:06:52.109Z,97808.11
2019-03-26T09:09:23.983Z,97814.73
2019-03-26T09:11:54.826Z,97807.45
2019-03-26T09:14:25.625Z,97812.04
2019-03-26T09:16:57.527Z,97812.98
2019-03-26T09:19:28.283Z,97812.41
2019-03-26T09:21:59.176Z,97818.34
2019-03-26T09:24:29.925Z,97815.66
2019-03-26T09:27:00.709Z,97802.23
2019-03-26T09:29:32.515Z,97813.95
2019-03-26T09:32:03.296Z,97812.77
2019-03-26T09:34:34.121Z,97812.48
2019-03-26T09:37:05.027Z,97812.73
2019-03-26T09:39:38.258Z,97813.95
2019-03-26T09:42:08.341Z,97812.05
2019-03-26T09:44:40.744Z,97807.73
2019-03-26T09:47:16.306Z,97802.88
2019-03-26T09:49:44.156Z,97802.31
2019-03-26T09:52:14.983Z,97812.08
2019-03-26T09:54:45.819Z,97820.81
2019-03-26T09:57:16.626Z,97824.78
2019-03-26T09:59:47.438Z,97819.88
2019-03-26T10:02:19.270Z,97826.97
2019-03-26T10:04:50.219Z,97822.16
2019-03-26T10:07:22.012Z,97820.25
2019-03-26T10:09:53.108Z,97810.08
2019-03-26T10:12:25.011Z,97814.04
2019-03-26T10:14:55.881Z,97804.70
2019-03-26T10:17:26.795Z,97812.20
2019-03-26T10:19:57.715Z,97801.77
2019-03-26T10:22:28.579Z,97807.91
2019-03-26T10:24:59.421Z,97801.86
2019-03-26T10:27:30.239Z,97798.20
2019-03-26T10:30:01.075Z,97804.30
2019-03-26T10:32:32.084Z,97805.33
2019-03-26T10:35:03.057Z,97800.64
2019-03-26T10:37:33.850Z,97795.36
2019-03-26T10:40:04.892Z,97796.70
2019-03-26T10:42:35.715Z,97795.67
2019-03-26T10:45:06.779Z,97792.02
2019-03-26T10:47:37.586Z,97787.52
2019-03-26T10:50:08.510Z,97783.02
2019-03-26T10:52:40.344Z,97776.31
2019-03-26T10:55:11.283Z,97779.83
2019-03-26T10:57:42.087Z,97778.02
2019-03-26T11:00:12.968Z,97774.97
2019-03-26T11:02:43.855Z,97768.52
2019-03-26T11:05:14.995Z,97770.27
2019-03-26T11:07:45.861Z,97775.08
2019-03-26T11:10:16.649Z,97766.55
2019-03-26T11:12:47.573Z,97767.02
2019-03-26T11:15:18.488Z,97764.90
2019-03-26T11:17:49.336Z,97765.27
2019-03-26T11:20:20.031Z,97773.33
2019-03-26T11:22:50.779Z,97768.93
2019-03-26T11:25:21.460Z,97760.41
2019-03-26T11:27:52.272Z,97768.83
2019-03-26T11:30:22.967Z,97766.41
2019-03-26T11:32:53.703Z,97767.75
2019-03-26T11:35:24.388Z,97764.90
2019-03-26T11:37:55.224Z,97757.22
2019-03-26T11:40:25.908Z,97762.12
2019-03-26T11:42:56.651Z,97761.65
2019-03-26T11:45:27.446Z,97764.64
2019-03-26T11:47:58.342Z,97757.42
2019-03-26T11:50:29.130Z,97761.95
2019-03-26T11:52:59.877Z,97757.52
2019-03-26T11:55:30.645Z,97763.30
2019-03-26T11:58:01.447Z,97750.91
2019-03-26T12:00:35.284Z,97757.78
2019-03-26T12:03:06.074Z,97752.70
2019-03-26T12:05:36.890Z,97754.72
2019-03-26T12:08:08.513Z,97743.67
2019-03-26T12:10:39.409Z,97738.20
2019-03-26T12:13:10.242Z,97735.83
2019-03-26T12:15:41.091Z,97740.33
2019-03-26T12:18:11.910Z,97741.10
2019-03-26T12:20:44.810Z,97735.73
2019-03-26T12:23:15.601Z,97736.30
2019-03-26T12:25:46.876Z,97737.64
2019-03-26T12:28:18.010Z,97738.20
2019-03-26T12:30:50.246Z,97740.42
2019-03-26T12:33:21.221Z,97731.80
2019-03-26T12:35:52.682Z,97734.79
2019-03-26T12:38:24.001Z,97735.73
2019-03-26T12:40:55.150Z,97731.80
2019-03-26T12:43:26.233Z,97731.59
2019-03-26T12:45:57.418Z,97730.65
2019-03-26T12:48:28.506Z,97740.78
2019-03-26T12:51:00.125Z,97741.45
2019-03-26T12:53:34.398Z,97741.25
2019-03-26T12:56:05.677Z,97746.45
2019-03-26T12:58:36.958Z,97748.02
2019-03-26T13:01:08.071Z,97741.67
2019-03-26T13:03:39.324Z,97743.52
2019-03-26T13:06:10.708Z,97746.57
2019-03-26T13:08:41.818Z,97739.39
2019-03-26T13:11:13.298Z,97742.07
2019-03-26T13:13:44.174Z,97747.70
2019-03-26T13:16:15.000Z,97738.05
2019-03-26T13:18:45.813Z,97745.53
2019-03-26T13:21:16.700Z,97746.00
2019-03-26T13:23:47.735Z,97747.44
2019-03-26T13:26:18.799Z,97757.15
2019-03-26T13:28:49.771Z,97765.27
2019-03-26T13:31:21.196Z,97757.78
2019-03-26T13:33:52.569Z,97753.28
2019-03-26T13:36:23.874Z,97757.62
2019-03-26T13:38:59.173Z,97750.80
2019-03-26T13:41:32.917Z,97750.23
2019-03-26T13:44:04.232Z,97752.92
2019-03-26T13:46:35.070Z,97748.33
2019-03-26T13:49:06.002Z,97747.86
2019-03-26T13:51:37.335Z,97753.70
2019-03-26T13:54:08.239Z,97755.91
2019-03-26T13:56:39.059Z,97765.31
2019-03-26T13:59:09.861Z,97765.02
2019-03-26T14:01:42.139Z,97760.11
2019-03-26T14:04:14.467Z,97760.20
2019-03-26T14:06:45.367Z,97758.86
2019-03-26T14:09:14.285Z,97758.49
2019-03-26T14:11:43.129Z,97764.05
2019-03-26T14:14:14.415Z,97755.91
2019-03-26T14:16:45.142Z,97767.33
2019-03-26T14:19:15.953Z,97766.55
2019-03-26T14:21:46.836Z,97770.37
2019-03-26T14:24:17.837Z,97763.02
2019-03-26T14:26:48.651Z,97768.77
2019-03-26T14:29:19.536Z,97768.86
2019-03-26T14:31:50.500Z,97769.80
2019-03-26T14:34:21.231Z,97771.90
2019-03-26T14:36:52.057Z,97770.87
2019-03-26T14:39:22.896Z,97765.50
2019-03-26T14:41:53.825Z,97769.42
2019-03-26T14:44:24.607Z,97764.55
2019-03-26T14:46:55.459Z,97774.16
2019-03-26T14:49:26.309Z,97768.73
2019-03-26T14:51:57.161Z,97768.67
2019-03-26T14:54:27.940Z,97778.75
2019-03-26T14:56:58.884Z,97770.38
2019-03-26T14:59:29.738Z,97779.78
2019-03-26T15:02:00.591Z,97774.59
2019-03-26T15:04:36.692Z,97779.34
2019-03-26T15:07:08.744Z,97778.25
2019-03-26T15:09:39.592Z,97773.05
2019-03-26T15:12:10.556Z,97774.95
2019-03-26T15:14:41.410Z,97775.51
2019-03-26T15:17:12.323Z,97771.39
2019-03-26T15:19:43.212Z,97771.08
2019-03-26T15:22:13.941Z,97768.17
2019-03-26T15:24:44.882Z,97769.36
2019-03-26T15:27:15.702Z,97768.27
2019-03-26T15:29:46.562Z,97772.27
2019-03-26T15:32:17.500Z,97783.94
2019-03-26T15:34:49.297Z,97780.47
2019-03-26T15:37:20.101Z,97777.04
2019-03-26T15:39:50.911Z,97775.13
2019-03-26T15:42:22.998Z,97786.14
2019-03-26T15:44:53.949Z,97780.38
2019-03-26T15:47:24.799Z,97784.50
2019-03-26T15:49:55.631Z,97791.61
2019-03-26T15:52:26.470Z,97790.42
2019-03-26T15:54:57.342Z,97783.64
2019-03-26T15:57:28.083Z,97786.26
2019-03-26T15:59:58.924Z,97788.25
2019-03-26T16:02:29.888Z,97781.70
2019-03-26T16:05:00.634Z,97782.92
2019-03-26T16:07:33.450Z,97782.45
2019-03-26T16:10:04.335Z,97783.48
2019-03-26T16:12:41.074Z,97786.23
2019-03-26T16:15:08.491Z,97788.05
2019-03-26T16:17:39.390Z,97785.21
2019-03-26T16:20:10.206Z,97792.27
2019-03-26T16:22:41.297Z,97797.62
2019-03-26T16:25:12.058Z,97792.48
2019-03-26T16:27:42.873Z,97798.47
2019-03-26T16:30:13.599Z,97801.16
2019-03-26T16:32:44.431Z,97805.59
2019-03-26T16:35:15.192Z,97799.34
2019-03-26T16:37:46.025Z,97803.84
2019-03-26T16:40:16.930Z,97811.89
2019-03-26T16:42:47.735Z,97809.77
2019-03-26T16:45:18.557Z,97823.03
2019-03-26T16:47:49.359Z,97827.11
2019-03-26T16:50:20.246Z,97823.23
2019-03-26T16:52:51.177Z,97828.45
2019-03-26T16:55:22.092Z,97832.56
2019-03-26T16:57:52.978Z,97837.58
2019-03-26T17:00:32.224Z,97835.46
2019-03-26T17:03:03.095Z,97841.70
2019-03-26T17:05:33.913Z,97842.34
2019-03-26T17:08:04.994Z,97847.95
2019-03-26T17:10:35.783Z,97860.58
2019-03-26T17:13:06.818Z,97858.53
2019-03-26T17:15:37.806Z,97862.70
2019-03-26T17:18:11.838Z,97868.38
2019-03-26T17:20:43.421Z,97867.98
2019-03-26T17:23:14.591Z,97865.77
2019-03-26T17:25:45.702Z,97876.83
2019-03-26T17:28:19.928Z,97874.05
2019-03-26T17:30:55.429Z,97870.40
2019-03-26T17:33:28.976Z,97874.36
2019-03-26T17:35:59.286Z,97875.61
2019-03-26T17:38:30.437Z,97875.98
2019-03-26T17:41:01.288Z,97882.64
2019-03-26T17:43:32.211Z,97891.06
2019-03-26T17:46:03.084Z,97896.84
2019-03-26T17:48:33.950Z,97895.65
2019-03-26T17:51:04.939Z,97894.31
2019-03-26T17:53:35.886Z,97901.02
2019-03-26T17:56:07.594Z,97909.77
2019-03-26T17:58:40.270Z,97915.08
2019-03-26T18:01:11.767Z,97905.18
2019-03-26T18:03:42.604Z,97900.69
2019-03-26T18:06:16.797Z,97904.62
2019-03-26T18:08:47.625Z,97904.06
2019-03-26T18:11:18.415Z,97913.32
2019-03-26T18:13:49.258Z,97912.55
2019-03-26T18:16:20.075Z,97916.44
2019-03-26T18:18:50.837Z,97914.67
2019-03-26T18:21:23.074Z,97921.23
2019-03-26T18:23:55.159Z,97913.50
2019-03-26T18:26:26.383Z,97921.22
2019-03-26T18:28:58.343Z,97926.31
2019-03-26T18:31:31.303Z,97936.03
2019-03-26T18:34:02.141Z,97925.39
2019-03-26T18:36:33.625Z,97930.66
2019-03-26T18:39:06.501Z,97927.60
2019-03-26T18:41:38.148Z,97939.97
2019-03-26T18:44:09.252Z,97938.94
2019-03-26T18:46:40.311Z,97944.63
2019-03-26T18:49:11.603Z,97946.53
2019-03-26T18:51:42.763Z,97949.53
2019-03-26T18:54:15.360Z,97945.41
2019-03-26T18:56:46.408Z,97951.25
2019-03-26T18:59:17.739Z,97954.34
2019-03-26T19:01:49.126Z,97949.81
2019-03-26T19:04:20.548Z,97950.22
2019-03-26T19:06:51.428Z,97949.66
2019-03-26T19:09:22.690Z,97956.38
2019-03-26T19:11:53.586Z,97953.22
2019-03-26T19:14:25.097Z,97945.45
2019-03-26T19:16:56.466Z,97956.69
2019-03-26T19:19:27.735Z,97953.59
2019-03-26T19:21:58.958Z,97957.85
2019-03-26T19:24:30.018Z,97963.22
2019-03-26T19:27:04.288Z,97952.02
2019-03-26T19:29:35.019Z,97957.76
2019-03-26T19:32:07.287Z,97951.05
2019-03-26T19:34:38.983Z,97953.67
2019-03-26T19:37:10.217Z,97955.39
2019-03-26T19:39:41.605Z,97953.27
2019-03-26T19:42:12.510Z,97959.42
2019-03-26T19:44:43.415Z,97956.64
2019-03-26T19:47:14.665Z,97966.91
2019-03-26T19:49:48.267Z,97966.45
2019-03-26T19:52:20.706Z,97966.82
2019-03-26T19:54:54.195Z,97968.48
2019-03-26T19:57:25.197Z,97970.70
2019-03-26T19:59:56.093Z,97975.66
2019-03-26T20:02:26.921Z,97975.61
2019-03-26T20:04:57.757Z,97972.98
2019-03-26T20:07:28.716Z,97979.63
2019-03-26T20:09:59.780Z,97994.31
2019-03-26T20:12:30.635Z,97986.58
2019-03-26T20:15:01.631Z,97989.26
2019-03-26T20:17:32.741Z,97979.30
2019-03-26T20:20:04.157Z,97989.08
2019-03-26T20:22:35.597Z,97991.20
2019-03-26T20:25:07.556Z,97992.55
2019-03-26T20:27:40.088Z,97990.27
2019-03-26T20:30:11.967Z,98001.85
2019-03-26T20:32:42.926Z,97998.23
2019-03-26T20:35:14.835Z,97996.33
2019-03-26T20:37:46.717Z,98002.17
2019-03-26T20:40:17.613Z,98002.58
2019-03-26T20:42:48.596Z,98003.83
2019-03-26T20:45:19.437Z,98003.36
2019-03-26T20:47:50.694Z,98000.17
2019-03-26T20:50:21.550Z,98007.70
2019-03-26T20:52:53.998Z,98017.52
2019-03-26T20:55:35.123Z,98029.14
2019-03-26T20:58:05.967Z,98022.11
2019-03-26T21:00:38.071Z,98029.20
2019-03-26T21:03:09.176Z,98037.58
2019-03-26T21:05:40.041Z,98039.01
2019-03-26T21:08:10.949Z,98039.33
2019-03-26T21:10:41.787Z,98055.45
2019-03-26T21:13:12.656Z,98051.41
2019-03-26T21:15:56.365Z,98050.45
2019-03-26T21:18:16.269Z,98062.07
2019-03-26T21:20:48.409Z,98056.70
2019-03-26T21:23:19.310Z,98056.23
2019-03-26T21:25:50.137Z,98058.51
2019-03-26T21:28:22.133Z,98050.30
2019-03-26T21:30:52.951Z,98047.30
2019-03-26T21:33:23.699Z,98051.70
2019-03-26T21:35:54.580Z,98053.45
2019-03-26T21:38:25.330Z,98056.83
2019-03-26T21:40:56.215Z,98056.27
2019-03-26T21:43:27.013Z,98064.74
2019-03-26T21:45:57.795Z,98066.64
2019-03-26T21:48:28.651Z,98068.27
2019-03-26T21:50:59.417Z,98067.34
2019-03-26T21:53:30.190Z,98073.59
2019-03-26T21:56:06.867Z,98073.88
2019-03-26T21:58:33.993Z,98074.28
2019-03-26T22:01:05.000Z,98073.88
2019-03-26T22:03:35.884Z,98074.28
2019-03-26T22:06:07.163Z,98077.44
2019-03-26T22:08:39.041Z,98081.78
2019-03-26T22:11:10.148Z,98086.28
2019-03-26T22:13:40.982Z,98081.69
2019-03-26T22:16:11.866Z,98074.97
2019-03-26T22:18:42.720Z,98088.87
2019-03-26T22:21:13.532Z,98080.75
2019-03-26T22:23:44.347Z,98090.95
2019-03-26T22:26:15.198Z,98094.56
2019-03-26T22:28:46.010Z,98090.16
2019-03-26T22:31:16.926Z,98097.72
2019-03-26T22:33:47.721Z,98087.37
2019-03-26T22:36:18.629Z,98087.84
2019-03-26T22:38:50.423Z,98093.69
2019-03-26T22:41:21.287Z,98088.26
2019-03-26T22:43:54.982Z,98096.70
2019-03-26T22:46:24.605Z,98097.57
2019-03-26T22:48:55.311Z,98081.54
2019-03-26T22:51:26.284Z,98082.38
2019-03-26T22:53:57.019Z,98094.48
2019-03-26T22:56:27.933Z,98095.27
2019-03-26T22:58:58.701Z,98099.70
2019-03-26T23:01:29.518Z,98105.23
2019-03-26T23:04:00.329Z,98104.85
2019-03-26T23:06:31.250Z,98097.16
2019-03-26T23:09:02.203Z,98102.07
2019-03-26T23:11:34.962Z,98098.51
2019-03-26T23:14:05.833Z,98099.80
2019-03-26T23:16:36.892Z,98101.60
2019-03-26T23:19:07.718Z,98087.29
2019-03-26T23:21:38.621Z,98100.27
2019-03-26T23:24:10.467Z,98103.73
2019-03-26T23:26:42.906Z,98107.45
2019-03-26T23:29:15.264Z,98103.88
2019-03-26T23:31:46.124Z,98098.51
2019-03-26T23:34:16.937Z,98108.88
2019-03-26T23:36:48.087Z,98105.78
2019-03-26T23:39:19.175Z,98106.66
2019-03-26T23:41:49.999Z,98104.85
2019-03-26T23:44:25.966Z,98094.98
2019-03-26T23:46:53.569Z,98092.76
2019-03-26T23:49:24.409Z,98092.29
2019-03-26T23:51:56.550Z,98087.84
2019-03-26T23:54:27.395Z,98083.26
2019-03-26T23:56:58.201Z,98081.04
2019-03-26T23:59:29.126Z,98069.03
